WFLO2: Webbers Falls Lock & Dam & Reservoir (L&D 16)

Data processed at Thu Jan 04 2018 23:31


All information presented herein is the property of the government of the United States of America and may be revised or deleted at any time without prior notice.
Dissemination of this information without the expressed written consent of the Public Affairs Office, Tulsa District U.S. Army Corps of Engineers is strictly prohibited.
These data are gathered electronically and, as presented, have not undergone any form of quality control. These data are not guaranteed to be valid or correct.
Go to home page.
Go to station list.

Upstream stations:

Downstream station:
Previous Day
Next Day
Current Day
    
SHEF ID:       WFLO2     Webbers Falls Lock & Dam
STATION TYPE:  NAVIGATION LOCK
Normal Pool:  Bottom =   487.00, Top =   490.00

               PRECIP ELEVATION   STORAGE   TW-ELEV    INFLOW   RELEASE  AIR-TEMP  WIND-DIRWIND-SPEED REL-HUMID SOLAR-RAD   VOLTAGE  BAT-LOAD
                   in        ft     ac-ft        ft       cfs       cfs         F       deg       mph         %      W/m2      volt      volt
              Ccp-Rev   Ccp-Rev   Ccp-Rev   Ccp-Rev  Regi-Rev  Regi-Rev   Ccp-Rev   Ccp-Rev   Ccp-Rev   Ccp-Rev   Ccp-Rev   Ccp-Rev   Ccp-Rev
(US/Central)
01/02 00:00      0.00    489.41    163402    459.77         0         0     14.92     37.90      0.60     49.92      0.00     13.50     13.29
01/02 01:00      0.00    489.42    163515    459.73         0         0     14.40    353.40      2.30     54.60      0.00     13.50     13.29
01/02 02:00      0.00    489.41    163402    459.75         0         0     13.21     30.00      1.00     56.16      0.00     13.50     13.29
01/02 03:00      0.00    489.40    163288    459.91         0         0     14.90    120.30      1.90     53.91      0.00     13.50     13.29
01/02 04:00      0.00    489.24    161469    459.85        26         0     15.04    131.20      2.60     55.13      0.00     13.50     13.29
01/02 05:00      0.00    489.41    163402    459.92        26         0     15.06    136.80      3.70     53.63      0.00     13.50     13.29
01/02 06:00      0.00    489.41    163402    459.82        26         0     15.13    127.90      3.10     53.07      0.00     13.50     13.29
01/02 07:00      0.00    489.42    163515    459.81        26         0     15.30    130.20      4.20     50.81      0.00     13.50     13.29
01/02 08:00      0.00    489.42    163515    459.78      4573      2100     15.49    140.10      5.50     48.73      0.00     13.50     13.29
01/02 09:00      0.00    489.38    163061    459.80      8819      2100     15.71    131.00      5.80     48.17     27.90     13.50     13.29
01/02 10:00      0.00    489.53    164766    459.80     11441      2100     16.68    134.00      6.20     46.60    109.20     13.50     13.29
01/02 11:00      0.00    489.67    166358    459.66     11494      2100     17.71    149.90      6.40     45.37    192.30     13.50     13.29
01/02 12:00      0.00    489.75    167267    459.59     11547      2100     19.90    160.30      4.10     40.95    450.50     13.50     13.29
01/02 13:00      0.00    489.83    168177    459.59      7014      2100     21.00    174.10      2.50     37.42    317.80     13.50     12.89
01/02 14:00      0.00    489.84    168291    459.55      2744      2100     21.70    292.10      1.90     33.97    259.30     13.50     13.29
01/02 15:00      0.00    489.71    166813    459.65       123      2100     22.80    330.60      5.00     33.18    272.50     13.49     13.29
01/02 16:00      0.00    489.70    166699    459.64       119      2100     23.13    323.00      5.20     35.16    128.70     13.49     13.29
01/02 17:00      0.00    489.68    166472    459.52       114      2100     22.93    344.80      4.70     39.21     31.90     13.50     13.29
01/02 18:00      0.00    489.73    167040    459.54       450      2100     22.42    353.10      3.90     39.92      0.00     13.49     13.29
01/02 19:00      0.00    489.77    167495    459.54      1579      2100     22.23    353.40      1.40     41.69      0.00     13.50     13.29
01/02 20:00      0.00    489.75    167267    459.65      1579      2100     22.32     84.90      1.00     43.46      0.00     13.50     13.29
01/02 21:00      0.00    489.69    166585    459.63      3051      2100     21.74    283.40      2.10     45.55      0.00     13.50     13.29
01/02 22:00      0.00    489.67    166358    459.69      4798      2100     19.94    304.50      1.60     47.39      0.00     13.50     13.29
01/02 23:00      0.00    489.71    166813    459.62      4484      2100     16.25     46.10      1.00     57.93      0.00     13.50     13.29